sensor_id;sensor_type;location;lat;lon;timestamp;temperature;humidity
75705;DHT22;70013;44.726;37.760;2023-05-10T00:00:31;15.63;61.70
75705;DHT22;70013;44.726;37.760;2023-05-10T00:01:33;15.62;61.89
75705;DHT22;70013;44.726;37.760;2023-05-10T00:02:35;15.61;61.99
75705;DHT22;70013;44.726;37.760;2023-05-10T00:03:36;15.61;61.99
75705;DHT22;70013;44.726;37.760;2023-05-10T00:04:37;15.61;61.88
75705;DHT22;70013;44.726;37.760;2023-05-10T00:05:39;15.61;61.94
75705;DHT22;70013;44.726;37.760;2023-05-10T00:06:40;15.59;61.76
75705;DHT22;70013;44.726;37.760;2023-05-10T00:07:42;15.60;61.86
75705;DHT22;70013;44.726;37.760;2023-05-10T00:08:45;15.57;61.83
75705;DHT22;70013;44.726;37.760;2023-05-10T00:09:47;15.58;61.83
75705;DHT22;70013;44.726;37.760;2023-05-10T00:10:48;15.58;61.89
75705;DHT22;70013;44.726;37.760;2023-05-10T00:11:50;15.58;61.89
75705;DHT22;70013;44.726;37.760;2023-05-10T00:12:51;15.58;61.85
75705;DHT22;70013;44.726;37.760;2023-05-10T00:13:53;15.57;61.72
75705;DHT22;70013;44.726;37.760;2023-05-10T00:14:54;15.58;61.78
75705;DHT22;70013;44.726;37.760;2023-05-10T00:15:56;15.57;61.77
75705;DHT22;70013;44.726;37.760;2023-05-10T00:16:57;15.56;61.70
75705;DHT22;70013;44.726;37.760;2023-05-10T00:17:59;15.57;61.81
75705;DHT22;70013;44.726;37.760;2023-05-10T00:19:00;15.55;61.76
75705;DHT22;70013;44.726;37.760;2023-05-10T00:20:02;15.56;61.76
75705;DHT22;70013;44.726;37.760;2023-05-10T00:21:05;15.55;62.03
75705;DHT22;70013;44.726;37.760;2023-05-10T00:22:07;15.54;61.86
75705;DHT22;70013;44.726;37.760;2023-05-10T00:23:08;15.55;62.01
75705;DHT22;70013;44.726;37.760;2023-05-10T00:24:10;15.52;61.85
75705;DHT22;70013;44.726;37.760;2023-05-10T00:25:11;15.53;61.87
75705;DHT22;70013;44.726;37.760;2023-05-10T00:26:13;15.52;61.94
75705;DHT22;70013;44.726;37.760;2023-05-10T00:27:18;15.53;61.93
75705;DHT22;70013;44.726;37.760;2023-05-10T00:28:19;15.53;61.97
75705;DHT22;70013;44.726;37.760;2023-05-10T00:29:20;15.51;61.95
75705;DHT22;70013;44.726;37.760;2023-05-10T00:30:22;15.49;61.96
75705;DHT22;70013;44.726;37.760;2023-05-10T00:31:24;15.51;61.94
75705;DHT22;70013;44.726;37.760;2023-05-10T00:32:25;15.51;61.97
75705;DHT22;70013;44.726;37.760;2023-05-10T00:33:26;15.51;62.08
75705;DHT22;70013;44.726;37.760;2023-05-10T00:34:28;15.51;61.94
75705;DHT22;70013;44.726;37.760;2023-05-10T00:35:29;15.52;62.13
75705;DHT22;70013;44.726;37.760;2023-05-10T00:36:31;15.51;62.02
75705;DHT22;70013;44.726;37.760;2023-05-10T00:37:32;15.48;62.50
75705;DHT22;70013;44.726;37.760;2023-05-10T00:38:34;15.49;62.22
75705;DHT22;70013;44.726;37.760;2023-05-10T00:39:35;15.48;62.52
75705;DHT22;70013;44.726;37.760;2023-05-10T00:40:37;15.48;62.13
75705;DHT22;70013;44.726;37.760;2023-05-10T00:41:41;15.48;62.07
75705;DHT22;70013;44.726;37.760;2023-05-10T00:42:43;15.47;62.18
75705;DHT22;70013;44.726;37.760;2023-05-10T00:43:44;15.47;62.04
75705;DHT22;70013;44.726;37.760;2023-05-10T00:44:46;15.46;62.39
75705;DHT22;70013;44.726;37.760;2023-05-10T00:45:47;15.45;62.32
75705;DHT22;70013;44.726;37.760;2023-05-10T00:46:49;15.45;62.41
75705;DHT22;70013;44.726;37.760;2023-05-10T00:47:51;15.44;62.21
75705;DHT22;70013;44.726;37.760;2023-05-10T00:48:56;15.44;62.05
75705;DHT22;70013;44.726;37.760;2023-05-10T00:49:58;15.44;62.01
75705;DHT22;70013;44.726;37.760;2023-05-10T00:51:01;15.44;62.00
75705;DHT22;70013;44.726;37.760;2023-05-10T00:52:02;15.44;62.11
75705;DHT22;70013;44.726;37.760;2023-05-10T00:53:04;15.44;62.21
75705;DHT22;70013;44.726;37.760;2023-05-10T00:54:05;15.42;62.01
75705;DHT22;70013;44.726;37.760;2023-05-10T00:55:09;15.42;62.11
75705;DHT22;70013;44.726;37.760;2023-05-10T00:56:12;15.41;62.00
75705;DHT22;70013;44.726;37.760;2023-05-10T00:57:14;15.41;61.96
75705;DHT22;70013;44.726;37.760;2023-05-10T00:58:16;15.40;61.83
75705;DHT22;70013;44.726;37.760;2023-05-10T00:59:18;15.40;62.00
75705;DHT22;70013;44.726;37.760;2023-05-10T01:00:20;15.39;61.84
75705;DHT22;70013;44.726;37.760;2023-05-10T01:01:21;15.38;61.65
75705;DHT22;70013;44.726;37.760;2023-05-10T01:02:23;15.38;61.60
75705;DHT22;70013;44.726;37.760;2023-05-10T01:03:25;15.38;61.53
75705;DHT22;70013;44.726;37.760;2023-05-10T01:04:26;15.37;61.68
75705;DHT22;70013;44.726;37.760;2023-05-10T01:05:29;15.38;61.62
75705;DHT22;70013;44.726;37.760;2023-05-10T01:06:32;15.38;61.63
75705;DHT22;70013;44.726;37.760;2023-05-10T01:07:33;15.37;61.67
75705;DHT22;70013;44.726;37.760;2023-05-10T01:08:35;15.37;61.63
75705;DHT22;70013;44.726;37.760;2023-05-10T01:09:37;15.34;61.59
75705;DHT22;70013;44.726;37.760;2023-05-10T01:10:39;15.33;61.51
75705;DHT22;70013;44.726;37.760;2023-05-10T01:11:40;15.33;61.55
75705;DHT22;70013;44.726;37.760;2023-05-10T01:12:42;15.30;61.36
75705;DHT22;70013;44.726;37.760;2023-05-10T01:13:45;15.31;61.32
75705;DHT22;70013;44.726;37.760;2023-05-10T01:14:49;15.31;61.39
75705;DHT22;70013;44.726;37.760;2023-05-10T01:15:51;15.29;61.53
75705;DHT22;70013;44.726;37.760;2023-05-10T01:16:52;15.28;61.63
75705;DHT22;70013;44.726;37.760;2023-05-10T01:17:55;15.27;61.44
75705;DHT22;70013;44.726;37.760;2023-05-10T01:18:58;15.26;61.34
75705;DHT22;70013;44.726;37.760;2023-05-10T01:19:59;15.26;61.43
75705;DHT22;70013;44.726;37.760;2023-05-10T01:21:06;15.24;61.34
75705;DHT22;70013;44.726;37.760;2023-05-10T01:23:29;15.21;61.54
75705;DHT22;70013;44.726;37.760;2023-05-10T01:31:07;15.13;61.19
75705;DHT22;70013;44.726;37.760;2023-05-10T01:33:35;15.10;61.20
75705;DHT22;70013;44.726;37.760;2023-05-10T01:34:59;15.09;61.22
75705;DHT22;70013;44.726;37.760;2023-05-10T01:36:05;15.06;61.32
75705;DHT22;70013;44.726;37.760;2023-05-10T01:37:15;15.04;61.21
75705;DHT22;70013;44.726;37.760;2023-05-10T01:39:42;15.00;61.10
75705;DHT22;70013;44.726;37.760;2023-05-10T01:40:54;15.01;61.20
75705;DHT22;70013;44.726;37.760;2023-05-10T01:42:07;14.99;61.21
75705;DHT22;70013;44.726;37.760;2023-05-10T01:43:11;14.99;61.20
75705;DHT22;70013;44.726;37.760;2023-05-10T01:45:24;14.97;61.18
75705;DHT22;70013;44.726;37.760;2023-05-10T01:46:34;14.92;61.30
75705;DHT22;70013;44.726;37.760;2023-05-10T01:47:38;14.92;61.26
75705;DHT22;70013;44.726;37.760;2023-05-10T01:49:02;14.92;61.33
75705;DHT22;70013;44.726;37.760;2023-05-10T01:50:03;14.89;61.34
75705;DHT22;70013;44.726;37.760;2023-05-10T01:51:05;14.88;61.44
75705;DHT22;70013;44.726;37.760;2023-05-10T01:52:11;14.86;61.52
75705;DHT22;70013;44.726;37.760;2023-05-10T01:53:13;14.85;61.44
75705;DHT22;70013;44.726;37.760;2023-05-10T01:54:20;14.83;61.55
75705;DHT22;70013;44.726;37.760;2023-05-10T01:55:22;14.84;61.44
75705;DHT22;70013;44.726;37.760;2023-05-10T01:56:26;14.83;61.41
75705;DHT22;70013;44.726;37.760;2023-05-10T01:57:31;14.82;61.44
75705;DHT22;70013;44.726;37.760;2023-05-10T01:58:33;14.82;61.65
75705;DHT22;70013;44.726;37.760;2023-05-10T01:59:36;14.80;61.69
75705;DHT22;70013;44.726;37.760;2023-05-10T02:00:45;14.80;61.73
75705;DHT22;70013;44.726;37.760;2023-05-10T02:01:47;14.77;61.70
75705;DHT22;70013;44.726;37.760;2023-05-10T02:02:49;14.77;61.67
75705;DHT22;70013;44.726;37.760;2023-05-10T02:03:51;14.75;61.73
75705;DHT22;70013;44.726;37.760;2023-05-10T02:04:54;14.75;61.66
75705;DHT22;70013;44.726;37.760;2023-05-10T02:05:56;14.74;61.72
75705;DHT22;70013;44.726;37.760;2023-05-10T02:06:58;14.74;61.76
75705;DHT22;70013;44.726;37.760;2023-05-10T02:08:00;14.71;61.71
75705;DHT22;70013;44.726;37.760;2023-05-10T02:09:02;14.71;61.64
75705;DHT22;70013;44.726;37.760;2023-05-10T02:10:05;14.69;61.41
75705;DHT22;70013;44.726;37.760;2023-05-10T02:11:09;14.70;61.61
75705;DHT22;70013;44.726;37.760;2023-05-10T02:12:12;14.69;61.67
75705;DHT22;70013;44.726;37.760;2023-05-10T02:13:14;14.71;61.86
75705;DHT22;70013;44.726;37.760;2023-05-10T02:14:17;14.70;61.93
75705;DHT22;70013;44.726;37.760;2023-05-10T02:15:22;14.70;61.99
75705;DHT22;70013;44.726;37.760;2023-05-10T02:16:24;14.69;62.04
75705;DHT22;70013;44.726;37.760;2023-05-10T02:17:28;14.69;62.21
75705;DHT22;70013;44.726;37.760;2023-05-10T02:18:29;14.69;62.13
75705;DHT22;70013;44.726;37.760;2023-05-10T02:19:32;14.69;62.26
75705;DHT22;70013;44.726;37.760;2023-05-10T02:20:34;14.70;62.34
75705;DHT22;70013;44.726;37.760;2023-05-10T02:21:37;14.69;62.42
75705;DHT22;70013;44.726;37.760;2023-05-10T02:22:40;14.68;62.54
75705;DHT22;70013;44.726;37.760;2023-05-10T02:23:43;14.69;62.42
75705;DHT22;70013;44.726;37.760;2023-05-10T02:24:44;14.70;62.56
75705;DHT22;70013;44.726;37.760;2023-05-10T02:25:47;14.68;62.71
75705;DHT22;70013;44.726;37.760;2023-05-10T02:26:49;14.69;62.77
75705;DHT22;70013;44.726;37.760;2023-05-10T02:27:53;14.67;62.60
75705;DHT22;70013;44.726;37.760;2023-05-10T02:28:55;14.67;62.65
75705;DHT22;70013;44.726;37.760;2023-05-10T02:29:57;14.67;62.55
75705;DHT22;70013;44.726;37.760;2023-05-10T02:30:59;14.67;62.57
75705;DHT22;70013;44.726;37.760;2023-05-10T02:32:01;14.66;62.49
75705;DHT22;70013;44.726;37.760;2023-05-10T02:33:04;14.67;62.41
75705;DHT22;70013;44.726;37.760;2023-05-10T02:34:06;14.67;62.44
75705;DHT22;70013;44.726;37.760;2023-05-10T02:35:08;14.67;62.48
75705;DHT22;70013;44.726;37.760;2023-05-10T02:36:10;14.68;62.68
75705;DHT22;70013;44.726;37.760;2023-05-10T02:37:13;14.67;62.76
75705;DHT22;70013;44.726;37.760;2023-05-10T02:38:15;14.67;62.71
75705;DHT22;70013;44.726;37.760;2023-05-10T02:39:18;14.67;62.81
75705;DHT22;70013;44.726;37.760;2023-05-10T02:40:20;14.68;62.62
75705;DHT22;70013;44.726;37.760;2023-05-10T02:41:23;14.68;62.63
75705;DHT22;70013;44.726;37.760;2023-05-10T02:42:27;14.70;62.52
75705;DHT22;70013;44.726;37.760;2023-05-10T02:43:28;14.70;62.38
75705;DHT22;70013;44.726;37.760;2023-05-10T02:44:31;14.70;62.56
75705;DHT22;70013;44.726;37.760;2023-05-10T02:45:34;14.71;62.54
75705;DHT22;70013;44.726;37.760;2023-05-10T02:46:37;14.72;62.40
75705;DHT22;70013;44.726;37.760;2023-05-10T02:47:39;14.72;62.38
75705;DHT22;70013;44.726;37.760;2023-05-10T02:48:40;14.75;62.60
75705;DHT22;70013;44.726;37.760;2023-05-10T02:49:42;14.77;62.49
75705;DHT22;70013;44.726;37.760;2023-05-10T02:50:44;14.77;62.43
75705;DHT22;70013;44.726;37.760;2023-05-10T02:51:50;14.80;62.55
75705;DHT22;70013;44.726;37.760;2023-05-10T02:53:54;14.84;62.41
75705;DHT22;70013;44.726;37.760;2023-05-10T02:54:59;14.86;62.28
75705;DHT22;70013;44.726;37.760;2023-05-10T02:56:04;14.88;62.32
75705;DHT22;70013;44.726;37.760;2023-05-10T02:57:08;14.92;62.08
75705;DHT22;70013;44.726;37.760;2023-05-10T02:58:12;14.94;62.21
75705;DHT22;70013;44.726;37.760;2023-05-10T02:59:13;14.98;62.01
75705;DHT22;70013;44.726;37.760;2023-05-10T03:00:15;15.02;61.94
75705;DHT22;70013;44.726;37.760;2023-05-10T03:01:16;15.06;61.86
75705;DHT22;70013;44.726;37.760;2023-05-10T03:02:19;15.10;61.75
75705;DHT22;70013;44.726;37.760;2023-05-10T03:03:21;15.12;61.59
75705;DHT22;70013;44.726;37.760;2023-05-10T03:04:24;15.16;61.74
75705;DHT22;70013;44.726;37.760;2023-05-10T03:05:29;15.22;61.69
75705;DHT22;70013;44.726;37.760;2023-05-10T03:06:34;15.28;61.41
75705;DHT22;70013;44.726;37.760;2023-05-10T03:07:37;15.32;61.54
75705;DHT22;70013;44.726;37.760;2023-05-10T03:08:39;15.39;61.42
75705;DHT22;70013;44.726;37.760;2023-05-10T03:09:42;15.42;61.58
75705;DHT22;70013;44.726;37.760;2023-05-10T03:12:07;15.53;60.97
75705;DHT22;70013;44.726;37.760;2023-05-10T03:15:25;15.68;60.55
75705;DHT22;70013;44.726;37.760;2023-05-10T03:16:41;15.71;60.52
75705;DHT22;70013;44.726;37.760;2023-05-10T03:20:06;15.83;60.12
75705;DHT22;70013;44.726;37.760;2023-05-10T03:21:12;15.88;60.15
75705;DHT22;70013;44.726;37.760;2023-05-10T03:22:18;15.90;60.12
75705;DHT22;70013;44.726;37.760;2023-05-10T03:23:25;15.92;59.86
75705;DHT22;70013;44.726;37.760;2023-05-10T03:24:28;15.93;59.77
75705;DHT22;70013;44.726;37.760;2023-05-10T03:25:32;15.97;59.60
75705;DHT22;70013;44.726;37.760;2023-05-10T03:26:35;15.98;59.34
75705;DHT22;70013;44.726;37.760;2023-05-10T03:27:43;16.00;59.21
75705;DHT22;70013;44.726;37.760;2023-05-10T03:28:46;16.01;59.22
75705;DHT22;70013;44.726;37.760;2023-05-10T03:29:49;16.03;59.29
75705;DHT22;70013;44.726;37.760;2023-05-10T03:30:52;16.03;59.12
75705;DHT22;70013;44.726;37.760;2023-05-10T03:31:55;16.07;58.96
75705;DHT22;70013;44.726;37.760;2023-05-10T03:32:56;16.10;58.92
75705;DHT22;70013;44.726;37.760;2023-05-10T03:33:58;16.13;58.88
75705;DHT22;70013;44.726;37.760;2023-05-10T03:35:06;16.14;59.13
75705;DHT22;70013;44.726;37.760;2023-05-10T03:36:07;16.16;59.19
75705;DHT22;70013;44.726;37.760;2023-05-10T03:37:09;16.19;59.10
75705;DHT22;70013;44.726;37.760;2023-05-10T03:38:11;16.22;59.06
75705;DHT22;70013;44.726;37.760;2023-05-10T03:39:12;16.28;59.08
75705;DHT22;70013;44.726;37.760;2023-05-10T03:40:14;16.30;58.96
75705;DHT22;70013;44.726;37.760;2023-05-10T03:41:17;16.32;59.02
75705;DHT22;70013;44.726;37.760;2023-05-10T03:42:18;16.35;58.35
75705;DHT22;70013;44.726;37.760;2023-05-10T03:43:20;16.39;57.93
75705;DHT22;70013;44.726;37.760;2023-05-10T03:44:21;16.42;58.10
75705;DHT22;70013;44.726;37.760;2023-05-10T03:45:23;16.44;58.03
75705;DHT22;70013;44.726;37.760;2023-05-10T03:46:24;16.47;58.28
75705;DHT22;70013;44.726;37.760;2023-05-10T03:47:26;16.50;58.25
75705;DHT22;70013;44.726;37.760;2023-05-10T03:48:27;16.54;57.86
75705;DHT22;70013;44.726;37.760;2023-05-10T03:49:29;16.57;57.64
75705;DHT22;70013;44.726;37.760;2023-05-10T03:50:30;16.60;57.62
75705;DHT22;70013;44.726;37.760;2023-05-10T03:51:32;16.64;57.56
75705;DHT22;70013;44.726;37.760;2023-05-10T03:52:33;16.66;57.15
75705;DHT22;70013;44.726;37.760;2023-05-10T03:53:35;16.71;57.44
75705;DHT22;70013;44.726;37.760;2023-05-10T03:54:36;16.74;57.37
75705;DHT22;70013;44.726;37.760;2023-05-10T03:55:38;16.78;57.19
75705;DHT22;70013;44.726;37.760;2023-05-10T03:56:39;16.81;57.16
75705;DHT22;70013;44.726;37.760;2023-05-10T03:57:41;16.88;56.97
75705;DHT22;70013;44.726;37.760;2023-05-10T03:58:42;16.90;56.39
75705;DHT22;70013;44.726;37.760;2023-05-10T03:59:44;16.95;56.22
75705;DHT22;70013;44.726;37.760;2023-05-10T04:00:46;16.98;56.57
75705;DHT22;70013;44.726;37.760;2023-05-10T04:01:48;17.01;56.14
75705;DHT22;70013;44.726;37.760;2023-05-10T04:02:50;17.04;56.10
75705;DHT22;70013;44.726;37.760;2023-05-10T04:03:54;17.08;56.11
75705;DHT22;70013;44.726;37.760;2023-05-10T04:04:55;17.09;55.92
75705;DHT22;70013;44.726;37.760;2023-05-10T04:06:00;17.11;55.81
75705;DHT22;70013;44.726;37.760;2023-05-10T04:07:02;17.17;55.87
75705;DHT22;70013;44.726;37.760;2023-05-10T04:08:04;17.20;55.72
75705;DHT22;70013;44.726;37.760;2023-05-10T04:09:05;17.28;56.06
75705;DHT22;70013;44.726;37.760;2023-05-10T04:10:07;17.34;56.38
75705;DHT22;70013;44.726;37.760;2023-05-10T04:11:10;17.40;56.28
75705;DHT22;70013;44.726;37.760;2023-05-10T04:12:12;17.47;55.60
75705;DHT22;70013;44.726;37.760;2023-05-10T04:13:13;17.51;55.12
75705;DHT22;70013;44.726;37.760;2023-05-10T04:14:15;17.60;54.94
75705;DHT22;70013;44.726;37.760;2023-05-10T04:15:17;17.65;54.42
75705;DHT22;70013;44.726;37.760;2023-05-10T04:16:18;17.69;53.69
75705;DHT22;70013;44.726;37.760;2023-05-10T04:17:20;17.75;53.80
75705;DHT22;70013;44.726;37.760;2023-05-10T04:18:21;17.81;53.64
75705;DHT22;70013;44.726;37.760;2023-05-10T04:19:23;17.88;53.55
75705;DHT22;70013;44.726;37.760;2023-05-10T04:20:24;17.93;53.13
75705;DHT22;70013;44.726;37.760;2023-05-10T04:21:26;18.00;51.98
75705;DHT22;70013;44.726;37.760;2023-05-10T04:22:27;18.05;52.65
75705;DHT22;70013;44.726;37.760;2023-05-10T04:23:30;18.10;52.01
75705;DHT22;70013;44.726;37.760;2023-05-10T04:24:31;18.14;51.98
75705;DHT22;70013;44.726;37.760;2023-05-10T04:25:33;18.17;51.31
75705;DHT22;70013;44.726;37.760;2023-05-10T04:26:35;18.19;51.11
75705;DHT22;70013;44.726;37.760;2023-05-10T04:27:37;18.21;49.98
75705;DHT22;70013;44.726;37.760;2023-05-10T04:28:38;18.23;49.82
75705;DHT22;70013;44.726;37.760;2023-05-10T04:29:39;18.25;50.37
75705;DHT22;70013;44.726;37.760;2023-05-10T04:30:41;18.30;50.91
75705;DHT22;70013;44.726;37.760;2023-05-10T04:31:43;18.34;50.41
75705;DHT22;70013;44.726;37.760;2023-05-10T04:32:44;18.39;50.50
75705;DHT22;70013;44.726;37.760;2023-05-10T04:33:45;18.40;49.85
75705;DHT22;70013;44.726;37.760;2023-05-10T04:34:47;18.42;50.37
75705;DHT22;70013;44.726;37.760;2023-05-10T04:35:48;18.44;50.51
75705;DHT22;70013;44.726;37.760;2023-05-10T04:36:50;18.42;50.52
75705;DHT22;70013;44.726;37.760;2023-05-10T04:37:51;18.43;50.44
75705;DHT22;70013;44.726;37.760;2023-05-10T04:38:53;18.44;50.29
75705;DHT22;70013;44.726;37.760;2023-05-10T04:39:54;18.43;50.30
75705;DHT22;70013;44.726;37.760;2023-05-10T04:41:05;18.42;50.62
75705;DHT22;70013;44.726;37.760;2023-05-10T04:42:07;18.47;50.43
75705;DHT22;70013;44.726;37.760;2023-05-10T04:43:08;18.49;50.16
75705;DHT22;70013;44.726;37.760;2023-05-10T04:44:10;18.49;49.98
75705;DHT22;70013;44.726;37.760;2023-05-10T04:45:11;18.51;49.61
75705;DHT22;70013;44.726;37.760;2023-05-10T04:46:13;18.50;49.76
75705;DHT22;70013;44.726;37.760;2023-05-10T04:47:14;18.50;49.35
75705;DHT22;70013;44.726;37.760;2023-05-10T04:48:17;18.48;49.62
75705;DHT22;70013;44.726;37.760;2023-05-10T04:49:19;18.48;49.84
75705;DHT22;70013;44.726;37.760;2023-05-10T04:50:21;18.43;50.06
75705;DHT22;70013;44.726;37.760;2023-05-10T04:51:22;18.44;50.24
75705;DHT22;70013;44.726;37.760;2023-05-10T04:52:23;18.41;50.42
75705;DHT22;70013;44.726;37.760;2023-05-10T04:53:25;18.40;50.81
75705;DHT22;70013;44.726;37.760;2023-05-10T04:54:26;18.38;50.60
75705;DHT22;70013;44.726;37.760;2023-05-10T04:55:28;18.36;50.34
75705;DHT22;70013;44.726;37.760;2023-05-10T04:56:29;18.34;50.63
75705;DHT22;70013;44.726;37.760;2023-05-10T04:57:31;18.30;50.33
75705;DHT22;70013;44.726;37.760;2023-05-10T04:58:32;18.24;49.96
75705;DHT22;70013;44.726;37.760;2023-05-10T04:59:35;18.21;49.77
75705;DHT22;70013;44.726;37.760;2023-05-10T05:00:36;18.20;49.54
75705;DHT22;70013;44.726;37.760;2023-05-10T05:01:38;18.19;49.95
75705;DHT22;70013;44.726;37.760;2023-05-10T05:02:43;18.14;49.63
75705;DHT22;70013;44.726;37.760;2023-05-10T05:03:46;18.14;49.59
75705;DHT22;70013;44.726;37.760;2023-05-10T05:04:47;18.15;50.08
75705;DHT22;70013;44.726;37.760;2023-05-10T05:05:49;18.17;50.54
75705;DHT22;70013;44.726;37.760;2023-05-10T05:06:50;18.17;50.65
75705;DHT22;70013;44.726;37.760;2023-05-10T05:07:52;18.17;50.40
75705;DHT22;70013;44.726;37.760;2023-05-10T05:08:53;18.20;50.58
75705;DHT22;70013;44.726;37.760;2023-05-10T05:09:58;18.23;50.46
75705;DHT22;70013;44.726;37.760;2023-05-10T05:11:00;18.27;50.83
75705;DHT22;70013;44.726;37.760;2023-05-10T05:12:01;18.36;50.45
75705;DHT22;70013;44.726;37.760;2023-05-10T05:13:03;18.40;49.66
75705;DHT22;70013;44.726;37.760;2023-05-10T05:14:04;18.44;49.92
75705;DHT22;70013;44.726;37.760;2023-05-10T05:15:06;18.49;49.87
75705;DHT22;70013;44.726;37.760;2023-05-10T05:16:09;18.49;49.60
75705;DHT22;70013;44.726;37.760;2023-05-10T05:17:11;18.49;49.27
75705;DHT22;70013;44.726;37.760;2023-05-10T05:18:13;18.50;49.43
75705;DHT22;70013;44.726;37.760;2023-05-10T05:19:16;18.54;49.56
75705;DHT22;70013;44.726;37.760;2023-05-10T05:20:17;18.54;48.88
75705;DHT22;70013;44.726;37.760;2023-05-10T05:21:20;18.57;48.94
75705;DHT22;70013;44.726;37.760;2023-05-10T05:22:22;18.57;49.30
75705;DHT22;70013;44.726;37.760;2023-05-10T05:23:28;18.57;49.04
75705;DHT22;70013;44.726;37.760;2023-05-10T05:24:34;18.57;48.44
75705;DHT22;70013;44.726;37.760;2023-05-10T05:25:35;18.56;48.10
75705;DHT22;70013;44.726;37.760;2023-05-10T05:26:37;18.53;47.69
75705;DHT22;70013;44.726;37.760;2023-05-10T05:27:39;18.53;47.63
75705;DHT22;70013;44.726;37.760;2023-05-10T05:28:40;18.52;47.88
75705;DHT22;70013;44.726;37.760;2023-05-10T05:29:41;18.53;47.54
75705;DHT22;70013;44.726;37.760;2023-05-10T05:30:43;18.51;47.79
75705;DHT22;70013;44.726;37.760;2023-05-10T05:31:44;18.51;47.94
75705;DHT22;70013;44.726;37.760;2023-05-10T05:32:45;18.51;48.17
75705;DHT22;70013;44.726;37.760;2023-05-10T05:33:48;18.53;48.24
75705;DHT22;70013;44.726;37.760;2023-05-10T05:34:49;18.52;47.86
75705;DHT22;70013;44.726;37.760;2023-05-10T05:35:51;18.55;48.20
75705;DHT22;70013;44.726;37.760;2023-05-10T05:36:52;18.56;47.71
75705;DHT22;70013;44.726;37.760;2023-05-10T05:37:54;18.57;47.86
75705;DHT22;70013;44.726;37.760;2023-05-10T05:38:57;18.59;47.43
75705;DHT22;70013;44.726;37.760;2023-05-10T05:39:58;18.58;47.79
75705;DHT22;70013;44.726;37.760;2023-05-10T05:41:01;18.59;47.49
75705;DHT22;70013;44.726;37.760;2023-05-10T05:42:02;18.61;48.03
75705;DHT22;70013;44.726;37.760;2023-05-10T05:43:04;18.65;47.60
75705;DHT22;70013;44.726;37.760;2023-05-10T05:44:05;18.67;47.62
75705;DHT22;70013;44.726;37.760;2023-05-10T05:45:07;18.69;46.99
75705;DHT22;70013;44.726;37.760;2023-05-10T05:46:09;18.72;47.20
75705;DHT22;70013;44.726;37.760;2023-05-10T05:47:11;18.73;46.93
75705;DHT22;70013;44.726;37.760;2023-05-10T05:48:12;18.77;47.18
75705;DHT22;70013;44.726;37.760;2023-05-10T05:49:14;18.82;47.56
75705;DHT22;70013;44.726;37.760;2023-05-10T05:50:15;18.85;48.29
75705;DHT22;70013;44.726;37.760;2023-05-10T05:51:16;18.89;47.99
75705;DHT22;70013;44.726;37.760;2023-05-10T05:52:18;18.92;47.70
75705;DHT22;70013;44.726;37.760;2023-05-10T05:53:19;18.94;47.65
75705;DHT22;70013;44.726;37.760;2023-05-10T05:54:21;18.94;47.60
75705;DHT22;70013;44.726;37.760;2023-05-10T05:55:22;18.93;47.00
75705;DHT22;70013;44.726;37.760;2023-05-10T05:56:25;18.94;47.15
75705;DHT22;70013;44.726;37.760;2023-05-10T05:57:26;18.96;46.83
75705;DHT22;70013;44.726;37.760;2023-05-10T05:58:28;18.93;47.19
75705;DHT22;70013;44.726;37.760;2023-05-10T05:59:29;18.94;46.64
75705;DHT22;70013;44.726;37.760;2023-05-10T06:00:31;18.92;47.03
75705;DHT22;70013;44.726;37.760;2023-05-10T06:01:32;18.91;47.08
75705;DHT22;70013;44.726;37.760;2023-05-10T06:02:35;18.94;46.80
75705;DHT22;70013;44.726;37.760;2023-05-10T06:03:37;18.93;47.02
75705;DHT22;70013;44.726;37.760;2023-05-10T06:04:39;18.94;46.86
75705;DHT22;70013;44.726;37.760;2023-05-10T06:05:40;18.94;46.23
75705;DHT22;70013;44.726;37.760;2023-05-10T06:06:41;18.95;46.69
75705;DHT22;70013;44.726;37.760;2023-05-10T06:07:43;18.98;45.95
75705;DHT22;70013;44.726;37.760;2023-05-10T06:08:44;18.99;46.26
75705;DHT22;70013;44.726;37.760;2023-05-10T06:09:46;18.99;46.10
75705;DHT22;70013;44.726;37.760;2023-05-10T06:10:47;19.00;46.22
75705;DHT22;70013;44.726;37.760;2023-05-10T06:11:49;19.00;46.50
75705;DHT22;70013;44.726;37.760;2023-05-10T06:12:50;19.00;46.35
75705;DHT22;70013;44.726;37.760;2023-05-10T06:13:52;19.01;46.54
75705;DHT22;70013;44.726;37.760;2023-05-10T06:14:53;19.03;46.92
75705;DHT22;70013;44.726;37.760;2023-05-10T06:15:54;19.07;47.53
75705;DHT22;70013;44.726;37.760;2023-05-10T06:16:56;19.09;46.51
75705;DHT22;70013;44.726;37.760;2023-05-10T06:17:57;19.10;46.60
75705;DHT22;70013;44.726;37.760;2023-05-10T06:18:59;19.13;46.10
75705;DHT22;70013;44.726;37.760;2023-05-10T06:20:00;19.12;46.18
75705;DHT22;70013;44.726;37.760;2023-05-10T06:21:02;19.14;46.11
75705;DHT22;70013;44.726;37.760;2023-05-10T06:22:04;19.12;45.54
75705;DHT22;70013;44.726;37.760;2023-05-10T06:23:05;19.14;45.60
75705;DHT22;70013;44.726;37.760;2023-05-10T06:24:07;19.14;45.63
75705;DHT22;70013;44.726;37.760;2023-05-10T06:25:08;19.13;44.95
75705;DHT22;70013;44.726;37.760;2023-05-10T06:26:10;19.16;45.01
75705;DHT22;70013;44.726;37.760;2023-05-10T06:27:11;19.13;44.30
75705;DHT22;70013;44.726;37.760;2023-05-10T06:28:13;19.15;44.69
75705;DHT22;70013;44.726;37.760;2023-05-10T06:29:14;19.12;44.36
75705;DHT22;70013;44.726;37.760;2023-05-10T06:30:16;19.13;44.46
75705;DHT22;70013;44.726;37.760;2023-05-10T06:31:17;19.17;44.30
75705;DHT22;70013;44.726;37.760;2023-05-10T06:32:19;19.17;43.80
75705;DHT22;70013;44.726;37.760;2023-05-10T06:33:20;19.20;43.34
75705;DHT22;70013;44.726;37.760;2023-05-10T06:34:22;19.22;43.80
75705;DHT22;70013;44.726;37.760;2023-05-10T06:35:23;19.25;43.91
75705;DHT22;70013;44.726;37.760;2023-05-10T06:36:25;19.27;43.11
75705;DHT22;70013;44.726;37.760;2023-05-10T06:37:27;19.30;43.42
75705;DHT22;70013;44.726;37.760;2023-05-10T06:38:29;19.35;43.30
75705;DHT22;70013;44.726;37.760;2023-05-10T06:39:30;19.39;42.13
75705;DHT22;70013;44.726;37.760;2023-05-10T06:40:32;19.39;42.58
75705;DHT22;70013;44.726;37.760;2023-05-10T06:41:33;19.43;42.12
75705;DHT22;70013;44.726;37.760;2023-05-10T06:42:35;19.50;43.25
75705;DHT22;70013;44.726;37.760;2023-05-10T06:43:37;19.53;43.64
75705;DHT22;70013;44.726;37.760;2023-05-10T06:44:42;19.57;43.76
75705;DHT22;70013;44.726;37.760;2023-05-10T06:45:44;19.62;44.25
75705;DHT22;70013;44.726;37.760;2023-05-10T06:46:45;19.69;45.29